Terminal Aerodrome Forecast
Issued by NWS Missoula, MT

Home | Current Version | Previous Version | Text Only | Print | Product List | Glossary On
Versions: 1 2 3 4 5 6 7 8 9 10 11 12 13
000
FTUS45 KMSO 021723
TAFBTM
TAF
KBTM 021723Z 0218/0318 24012G18KT P6SM BKN100
     FM021900 24020G25KT P6SM BKN120
     FM022200 26012G18KT P6SM BKN120
     FM030300 VRB05KT P6SM SCT100=

USA.gov is the U.S. government's official web portal to all federal, state and local government web resources and services.